Pas de pilote en ligne...

Compagnie Fsx-France ! Un nouveau look pour votre VA, par : Julien & Co

 METAR ET TAF INFORMATION
METAR FOR LMML
ADDS - METARS form results

(0610 UTC 27 January 2022)
Data provider http://aviationweather.gov/metar/data/
 
METAR text: LMML 270545Z 31007KT 9999 FEW027 08/06 Q1028 NOSIG
Conditions at: LMML (LUQA/MALTA , MT) observed 0545 UTC 27 January 2022
Temperature: 8.0°C (46°F)
Dewpoint: 6.0°C (43°F) [RH = 87%]
Pressure (altimeter): 30.35 inches Hg (1028.0 mb)
Winds: from the NW (310 degrees) at 8 MPH (7 knots; 3.6 m/s)
Visibility: 6 or more miles (10+ km)
Ceiling: at least 12,000 feet AGL
Clouds: few clouds at 2700 feet AGL
Weather: no significant weather observed at this time

METAR text: LMML 270515Z 30008KT 9999 FEW027 09/06 Q1028 NOSIG
Conditions at: LMML (LUQA/MALTA , MT) observed 0515 UTC 27 January 2022
Temperature: 9.0°C (48°F)
Dewpoint: 6.0°C (43°F) [RH = 81%]
Pressure (altimeter): 30.35 inches Hg (1028.0 mb)
Winds: from the WNW (300 degrees) at 9 MPH (8 knots; 4.1 m/s)
Visibility: 6 or more miles (10+ km)
Ceiling: at least 12,000 feet AGL
Clouds: few clouds at 2700 feet AGL
Weather: no significant weather observed at this time

Forecast for: LMML (LUQA/MALTA , MT)
Text: TAF LMML 270500Z 2706/2806 32012KT 9999 FEW020
Forecast period: 0600 UTC 27 January 2022 to 0600 UTC 28 January 2022
Forecast type: FROM: standard forecast or significant change
Winds: from the NW (320 degrees) at 14 MPH (12 knots; 6.2 m/s)
Visibility: 6 or more miles (10+ km)
Ceiling: at least 12,000 feet AGL
Clouds: few clouds at 2000 feet AGL
Weather: no significant weather forecast for this period

 AÉROPORT DE AÉROPORT

 INFORMATIONS DE PISTE
Piste 05 Longueur de la piste 2377 m = 7799 ft Largeur de la piste 45 m = 148 ft
Élévation de la piste 297 ft Seuil de la piste déplacés 0 ft Runway heading 56
Piste 23 Longueur de la piste 2377 m = 7799 ft Largeur de la piste 45 m = 148 ft
Élévation de la piste 247 ft Seuil de la piste déplacés 0 ft Runway heading 236
Piste 13 Longueur de la piste 3544 m = 11627 ft Largeur de la piste 60 m = 197 ft
Élévation de la piste 256 ft Seuil de la piste déplacés 0 ft Runway heading 135
Piste 31 Longueur de la piste 3544 m = 11627 ft Largeur de la piste 60 m = 197 ft
Élévation de la piste 230 ft Seuil de la piste déplacés 620 ft Runway heading 315
 AÉROPORT FRÉQUENCES
Type APP Nom APP Féquence 128.15 MHZ
Type Distance R Nom Féquence 130.975 MHZ
Type Ground Nom Ground Féquence 121.6 MHZ
Type Leaving Nom Féquence 123.625 MHZ
Type Runway Nom Runway Féquence 138.1 MHZ
Type Volmet Nom Féquence 126.8 MHZ
Type Weather Nom WX Féquence 127.4 MHZ

 AIDES A LA NAVIGATION
Type DME Nom Malta Féquence 110500 KHZ
Type DME Nom Luqa Féquence 109700 KHZ
Type NDB Nom Luqa Féquence 416 KHZ
Type NDB Nom Malta Féquence 395 KHZ